Portada
Imágenes satélite Pronóstico 10 díasClimaPredicción Marítima Ciclones Rayo AeropuertosFAQ Noticias Acerca
El tiempo : Europa África América del Norte América del Sur Asia Australia-Oceanía Otros
Idiomas Contacto

Ciudad Del Este, Paraguay

Aeropuerto Internacional Guaraní

latitud: 25-27-20S, longitud: 054-50-37W, altitud: 257 m


METAR: SGES 310400Z 00000KT CAVOK 20/15 Q1015
TAF: SGES 302221Z 3100/0100 05008KT CAVOK TX33/3119Z TN18/3110Z

Hora: 00:41 (04:41 UTC)

Observación

El informe se hizo hace 41 minutos, a las 04:00 UTC
Viento calma
Temperatura 20°C
Humedad 73%
Presión 1015 hPa
Visibilidad 10 km o más
sin nubes por debajo de 1500 m y sin presencia de cumulonimbus.

Cambiar las unidades

Pronóstico

El informe se hizo hace 6 horas y 20 minutos, a las 22:21 UTC
Pronóstico válido del 31 a las 00 UTC al 01 a las 00 UTC
Viento 8 kt del noreste
Visibilidad 10 km o más
sin nubes por debajo de 1500 m y sin presencia de cumulonimbus.
La información que se ofrece en estas páginas está sujeta a una cláusula de exención de responsabilidad
El tiempo : Europa África América del Norte América del Sur Asia Australia-Oceanía Otros
Imágenes satélite Pronóstico 10 díasClimaPredicción Marítima Ciclones Rayo AeropuertosFAQ Idiomas Contacto Noticias Acerca